Impacts METAR Board
IDs:

KFLL - Ft Lauderdale-Hollyw, FL, US

Updated at: 1900 UTC 21 Jun 2018
Potential Impact None Slight Moderate High
Time 21/07Z 21/08Z 21/09Z 21/10Z 21/11Z 21/12Z 21/13Z 21/14Z 21/15Z 21/16Z 21/17Z 21/18Z 21/19Z
Temp81 80 79 79 79 82 85 86 89 90 92 88 90
Dewpt76 76 75 76 77 79 79 78 78 75 73 77 78
Altim29.93 29.92 29.92 29.93 29.95 29.95 29.96 29.95 29.95 29.95 29.95 29.93 29.92
VIS10 10 10 10 10 10 10 10 10 10 10 10 10
CIG-- -- -- -- -- -- -- 250 250 -- 30 35 38
CoverCLRCLRCLRFEWSCTFEWSCTBKNBKNFEWBKNBKNBKN
FltCatVFRVFRVFRVFRVFRVFRVFRVFRVFRVFRMVFRVFRVFR
WX--------------------------
WDir2100240220230220260240000130150
WSpd4 0 5 4 5 5 5 8 5 0 4 8 12
WGst-- -- -- -- -- -- -- -- -- -- -- -- 18
Raw hourly METARs
KFLL 210653Z 21004KT 10SM CLR 27/24 A2993 RMK AO2 SLP133 T02720244
KFLL 210753Z 00000KT 10SM CLR 27/24 A2992 RMK AO2 SLP132 T02670244
KFLL 210853Z 24005KT 10SM CLR 26/24 A2992 RMK AO2 SLP131 T02610239 56005
KFLL 210953Z 22004KT 10SM FEW025 26/24 A2993 RMK AO2 SLP135 T02610244
KFLL 211053Z 23005KT 10SM FEW023 SCT250 26/25 A2995 RMK AO2 SLP140 T02610250
KFLL 211153Z 22005KT 10SM FEW025 FEW250 28/26 A2995 RMK AO2 SLP143 T02780261 10278 20261 51012
KFLL 211253Z 26005KT 10SM FEW025 SCT250 29/26 A2996 RMK AO2 SLP144 T02940261
KFLL 211353Z 24008KT 10SM FEW025 BKN250 30/26 A2995 RMK AO2 SLP143 T03000256
KFLL 211453Z VRB05KT 10SM FEW025 BKN250 32/26 A2995 RMK AO2 SLP142 T03170256 58001
KFLL 211553Z 00000KT 10SM FEW038 FEW065 32/24 A2995 RMK AO2 SLP141 T03220239
KFLL 211653Z VRB04KT 10SM BKN030 BKN250 33/23 A2995 RMK AO2 SLP141 T03330228
KFLL 211753Z 13008KT 10SM BKN035 BKN250 31/25 A2993 RMK AO2 SLP134 T03110250 10333 20278 58008
KFLL 211853Z 15012G18KT 10SM BKN038 BKN060 BKN250 32/26 A2992 RMK AO2 LTG DSNT S SLP130 T03220256



Page loaded:  19:50 UTC  |   12:50 PM Pacific  |   01:50 PM Mountain  |   02:50 PM Central  |   03:50 PM Eastern

 

ADVISORIES

FORECASTS

FORECASTS

OBSERVATIONS

USER TOOLS

ABOUT US